sensor_id;sensor_type;location;lat;lon;timestamp;pressure;altitude;pressure_sealevel;temperature;humidity
28267;BME280;15525;45.568;5.448;2023-02-18T00:02:05;99414.38;;;12.84;52.79
28267;BME280;15525;45.568;5.448;2023-02-18T00:04:31;99489.66;;;13.27;52.68
28267;BME280;15525;45.568;5.448;2023-02-18T00:06:56;99488.34;;;13.30;53.20
28267;BME280;15525;45.568;5.448;2023-02-18T00:09:22;99474.53;;;13.21;52.98
28267;BME280;15525;45.568;5.448;2023-02-18T00:11:47;99490.72;;;13.26;52.93
28267;BME280;15525;45.568;5.448;2023-02-18T00:14:14;99454.16;;;13.04;52.83
28267;BME280;15525;45.568;5.448;2023-02-18T00:16:41;99444.88;;;12.95;52.94
28267;BME280;15525;45.568;5.448;2023-02-18T00:19:10;99437.00;;;12.88;53.38
28267;BME280;15525;45.568;5.448;2023-02-18T00:21:36;99481.78;;;13.21;53.44
28267;BME280;15525;45.568;5.448;2023-02-18T00:24:03;99459.41;;;13.15;53.30
28267;BME280;15525;45.568;5.448;2023-02-18T00:26:29;99456.63;;;13.10;53.52
28267;BME280;15525;45.568;5.448;2023-02-18T00:28:54;99450.88;;;13.02;53.83
28267;BME280;15525;45.568;5.448;2023-02-18T00:31:23;99462.66;;;13.17;53.59
28267;BME280;15525;45.568;5.448;2023-02-18T00:33:49;99454.88;;;13.21;53.44
28267;BME280;15525;45.568;5.448;2023-02-18T00:36:16;99474.16;;;13.34;52.82
28267;BME280;15525;45.568;5.448;2023-02-18T00:38:44;99467.06;;;13.28;52.81
28267;BME280;15525;45.568;5.448;2023-02-18T00:41:10;99444.91;;;13.16;53.05
28267;BME280;15525;45.568;5.448;2023-02-18T00:43:35;99465.88;;;13.19;53.69
28267;BME280;15525;45.568;5.448;2023-02-18T00:46:00;99422.09;;;12.97;53.70
28267;BME280;15525;45.568;5.448;2023-02-18T00:48:26;99462.28;;;13.30;53.28
28267;BME280;15525;45.568;5.448;2023-02-18T00:50:51;99467.47;;;13.37;53.67
28267;BME280;15525;45.568;5.448;2023-02-18T00:53:17;99435.28;;;13.20;53.21
28267;BME280;15525;45.568;5.448;2023-02-18T00:55:45;99453.06;;;13.26;53.50
28267;BME280;15525;45.568;5.448;2023-02-18T00:58:14;99452.19;;;13.21;53.54
28267;BME280;15525;45.568;5.448;2023-02-18T01:00:40;99466.72;;;13.20;53.68
28267;BME280;15525;45.568;5.448;2023-02-18T01:03:07;99469.16;;;13.21;53.77
28267;BME280;15525;45.568;5.448;2023-02-18T01:05:32;99443.53;;;13.14;53.88
28267;BME280;15525;45.568;5.448;2023-02-18T01:07:58;99451.69;;;13.24;53.47
28267;BME280;15525;45.568;5.448;2023-02-18T01:10:23;99432.00;;;13.18;53.60
28267;BME280;15525;45.568;5.448;2023-02-18T01:12:49;99436.69;;;13.28;53.50
28267;BME280;15525;45.568;5.448;2023-02-18T01:15:15;99441.34;;;13.37;52.90
28267;BME280;15525;45.568;5.448;2023-02-18T01:17:41;99442.91;;;13.33;53.07
28267;BME280;15525;45.568;5.448;2023-02-18T01:20:07;99449.69;;;13.36;53.14
28267;BME280;15525;45.568;5.448;2023-02-18T01:22:33;99434.16;;;13.16;53.47
28267;BME280;15525;45.568;5.448;2023-02-18T01:24:58;99420.00;;;13.04;53.80
28267;BME280;15525;45.568;5.448;2023-02-18T01:27:23;99435.88;;;13.27;53.86
28267;BME280;15525;45.568;5.448;2023-02-18T01:29:49;99437.03;;;13.36;53.11
28267;BME280;15525;45.568;5.448;2023-02-18T01:32:15;99412.78;;;13.31;53.24
28267;BME280;15525;45.568;5.448;2023-02-18T01:34:40;99407.75;;;13.40;53.33
28267;BME280;15525;45.568;5.448;2023-02-18T01:37:05;99427.22;;;13.47;53.03
28267;BME280;15525;45.568;5.448;2023-02-18T01:39:31;99384.19;;;13.20;53.03
28267;BME280;15525;45.568;5.448;2023-02-18T01:41:57;99440.81;;;13.62;53.18
28267;BME280;15525;45.568;5.448;2023-02-18T01:44:25;99436.00;;;13.64;53.13
28267;BME280;15525;45.568;5.448;2023-02-18T01:46:51;99444.38;;;13.67;53.07
28267;BME280;15525;45.568;5.448;2023-02-18T01:49:30;99436.81;;;13.64;53.51
28267;BME280;15525;45.568;5.448;2023-02-18T01:52:17;99437.34;;;13.61;53.74
28267;BME280;15525;45.568;5.448;2023-02-18T01:54:48;99411.31;;;13.45;53.40
28267;BME280;15525;45.568;5.448;2023-02-18T01:57:21;99436.72;;;13.54;53.94
28267;BME280;15525;45.568;5.448;2023-02-18T02:00:00;99421.59;;;13.48;53.43
28267;BME280;15525;45.568;5.448;2023-02-18T02:02:29;99399.34;;;13.31;53.72
28267;BME280;15525;45.568;5.448;2023-02-18T02:04:56;99410.19;;;13.41;53.69
28267;BME280;15525;45.568;5.448;2023-02-18T02:07:24;99438.91;;;13.57;53.65
28267;BME280;15525;45.568;5.448;2023-02-18T02:09:51;99416.09;;;13.38;53.77
28267;BME280;15525;45.568;5.448;2023-02-18T02:18:15;99425.66;;;13.51;54.47
28267;BME280;15525;45.568;5.448;2023-02-18T02:26:14;99415.47;;;13.58;53.94
28267;BME280;15525;45.568;5.448;2023-02-18T02:34:32;99418.75;;;13.60;54.00
28267;BME280;15525;45.568;5.448;2023-02-18T02:39:37;99400.41;;;13.57;53.49
28267;BME280;15525;45.568;5.448;2023-02-18T02:48:10;99389.72;;;13.67;52.92
28267;BME280;15525;45.568;5.448;2023-02-18T02:50:45;99404.34;;;13.76;53.66
28267;BME280;15525;45.568;5.448;2023-02-18T02:53:25;99404.59;;;13.74;53.69
28267;BME280;15525;45.568;5.448;2023-02-18T02:55:51;99369.44;;;13.54;53.52
28267;BME280;15525;45.568;5.448;2023-02-18T02:58:19;99405.13;;;13.71;53.38
28267;BME280;15525;45.568;5.448;2023-02-18T03:11:41;99401.22;;;13.57;54.37
28267;BME280;15525;45.568;5.448;2023-02-18T03:14:16;99402.81;;;13.53;54.23
28267;BME280;15525;45.568;5.448;2023-02-18T03:16:54;99412.09;;;13.67;54.61
28267;BME280;15525;45.568;5.448;2023-02-18T03:19:32;99409.34;;;13.62;54.57
28267;BME280;15525;45.568;5.448;2023-02-18T03:22:19;99409.88;;;13.64;54.12
28267;BME280;15525;45.568;5.448;2023-02-18T03:24:49;99402.19;;;13.73;54.00
28267;BME280;15525;45.568;5.448;2023-02-18T03:27:24;99386.00;;;13.68;54.50
28267;BME280;15525;45.568;5.448;2023-02-18T03:29:58;99394.63;;;13.70;53.93
28267;BME280;15525;45.568;5.448;2023-02-18T03:32:25;99407.22;;;13.96;54.94
28267;BME280;15525;45.568;5.448;2023-02-18T03:34:59;99388.44;;;13.74;54.06
28267;BME280;15525;45.568;5.448;2023-02-18T03:37:26;99393.03;;;13.74;54.16
28267;BME280;15525;45.568;5.448;2023-02-18T03:39:54;99385.38;;;13.61;54.53
28267;BME280;15525;45.568;5.448;2023-02-18T03:42:28;99381.91;;;13.65;54.45
28267;BME280;15525;45.568;5.448;2023-02-18T03:44:53;99398.66;;;13.72;54.69
28267;BME280;15525;45.568;5.448;2023-02-18T03:47:19;99395.44;;;13.70;54.77
28267;BME280;15525;45.568;5.448;2023-02-18T03:49:45;99385.69;;;13.64;55.15
28267;BME280;15525;45.568;5.448;2023-02-18T03:52:10;99390.09;;;13.75;54.88
28267;BME280;15525;45.568;5.448;2023-02-18T03:54:35;99403.06;;;13.83;54.68
28267;BME280;15525;45.568;5.448;2023-02-18T03:57:01;99382.03;;;13.75;54.57
28267;BME280;15525;45.568;5.448;2023-02-18T03:59:26;99344.97;;;13.56;54.99
28267;BME280;15525;45.568;5.448;2023-02-18T04:01:52;99370.34;;;13.65;55.45
28267;BME280;15525;45.568;5.448;2023-02-18T04:04:17;99367.16;;;13.68;54.77
28267;BME280;15525;45.568;5.448;2023-02-18T04:06:43;99364.75;;;13.71;54.81
28267;BME280;15525;45.568;5.448;2023-02-18T04:09:08;99385.88;;;13.84;54.60
28267;BME280;15525;45.568;5.448;2023-02-18T04:11:38;99377.78;;;13.84;54.52
28267;BME280;15525;45.568;5.448;2023-02-18T04:14:04;99378.28;;;13.81;54.71
28267;BME280;15525;45.568;5.448;2023-02-18T04:16:30;99390.47;;;13.89;54.59
28267;BME280;15525;45.568;5.448;2023-02-18T04:18:55;99354.78;;;13.72;53.99
28267;BME280;15525;45.568;5.448;2023-02-18T04:21:21;99370.28;;;13.91;54.22
28267;BME280;15525;45.568;5.448;2023-02-18T04:23:46;99370.03;;;13.93;54.46
28267;BME280;15525;45.568;5.448;2023-02-18T04:26:12;99372.69;;;13.88;54.75
28267;BME280;15525;45.568;5.448;2023-02-18T04:28:37;99370.56;;;13.90;55.00
28267;BME280;15525;45.568;5.448;2023-02-18T04:31:03;99339.16;;;13.64;54.85
28267;BME280;15525;45.568;5.448;2023-02-18T04:33:28;99372.06;;;13.76;55.18
28267;BME280;15525;45.568;5.448;2023-02-18T04:35:54;99329.88;;;13.50;55.54
28267;BME280;15525;45.568;5.448;2023-02-18T04:38:19;99369.09;;;13.77;55.01
28267;BME280;15525;45.568;5.448;2023-02-18T04:40:45;99350.69;;;13.64;55.03
28267;BME280;15525;45.568;5.448;2023-02-18T04:43:10;99331.03;;;13.59;55.33
28267;BME280;15525;45.568;5.448;2023-02-18T04:45:35;99355.63;;;13.72;55.52
28267;BME280;15525;45.568;5.448;2023-02-18T04:48:01;99365.34;;;13.78;55.00
28267;BME280;15525;45.568;5.448;2023-02-18T04:50:27;99353.00;;;13.82;55.06
28267;BME280;15525;45.568;5.448;2023-02-18T04:52:52;99373.78;;;13.87;54.95
28267;BME280;15525;45.568;5.448;2023-02-18T04:55:18;99311.63;;;13.57;54.81
28267;BME280;15525;45.568;5.448;2023-02-18T04:57:43;99347.63;;;13.82;54.83
28267;BME280;15525;45.568;5.448;2023-02-18T05:00:13;99377.25;;;13.87;55.71
28267;BME280;15525;45.568;5.448;2023-02-18T05:02:39;99370.25;;;13.86;55.01
28267;BME280;15525;45.568;5.448;2023-02-18T05:05:05;99357.28;;;13.78;54.99
28267;BME280;15525;45.568;5.448;2023-02-18T05:07:30;99354.53;;;13.73;55.03
28267;BME280;15525;45.568;5.448;2023-02-18T05:09:56;99343.47;;;13.70;55.02
28267;BME280;15525;45.568;5.448;2023-02-18T05:12:21;99347.84;;;13.76;55.37
28267;BME280;15525;45.568;5.448;2023-02-18T05:14:47;99351.56;;;13.70;54.89
28267;BME280;15525;45.568;5.448;2023-02-18T05:17:12;99348.59;;;13.66;55.27
28267;BME280;15525;45.568;5.448;2023-02-18T05:19:37;99322.31;;;13.47;55.75
28267;BME280;15525;45.568;5.448;2023-02-18T05:22:03;99357.41;;;13.62;55.60
28267;BME280;15525;45.568;5.448;2023-02-18T05:24:28;99356.03;;;13.59;55.26
28267;BME280;15525;45.568;5.448;2023-02-18T05:26:54;99345.81;;;13.56;55.31
28267;BME280;15525;45.568;5.448;2023-02-18T05:29:19;99339.34;;;13.57;55.06
28267;BME280;15525;45.568;5.448;2023-02-18T05:31:45;99340.63;;;13.50;55.18
28267;BME280;15525;45.568;5.448;2023-02-18T05:34:10;99346.72;;;13.40;55.69
28267;BME280;15525;45.568;5.448;2023-02-18T05:36:35;99350.03;;;13.47;55.74
28267;BME280;15525;45.568;5.448;2023-02-18T05:39:01;99365.16;;;13.53;56.06
28267;BME280;15525;45.568;5.448;2023-02-18T05:41:27;99362.91;;;13.45;56.01
28267;BME280;15525;45.568;5.448;2023-02-18T05:43:52;99367.59;;;13.55;55.83
28267;BME280;15525;45.568;5.448;2023-02-18T05:46:36;99359.16;;;13.46;55.83
28267;BME280;15525;45.568;5.448;2023-02-18T05:49:01;99375.41;;;13.56;55.45
28267;BME280;15525;45.568;5.448;2023-02-18T05:51:27;99357.56;;;13.50;55.49
28267;BME280;15525;45.568;5.448;2023-02-18T05:53:52;99371.38;;;13.59;55.71
28267;BME280;15525;45.568;5.448;2023-02-18T05:56:18;99364.66;;;13.56;55.59
28267;BME280;15525;45.568;5.448;2023-02-18T05:58:44;99301.03;;;13.14;55.30
28267;BME280;15525;45.568;5.448;2023-02-18T06:01:09;99348.72;;;13.50;55.06
28267;BME280;15525;45.568;5.448;2023-02-18T06:03:34;99371.63;;;13.57;55.33
28267;BME280;15525;45.568;5.448;2023-02-18T06:06:00;99355.91;;;13.44;56.08
28267;BME280;15525;45.568;5.448;2023-02-18T06:08:26;99361.28;;;13.44;56.13
28267;BME280;15525;45.568;5.448;2023-02-18T06:10:51;99356.94;;;13.38;55.94
28267;BME280;15525;45.568;5.448;2023-02-18T06:13:17;99359.63;;;13.38;56.23
28267;BME280;15525;45.568;5.448;2023-02-18T06:15:42;99354.78;;;13.40;56.12
28267;BME280;15525;45.568;5.448;2023-02-18T06:18:08;99346.69;;;13.35;55.75
28267;BME280;15525;45.568;5.448;2023-02-18T06:20:33;99316.75;;;13.27;55.76
28267;BME280;15525;45.568;5.448;2023-02-18T06:22:59;99359.16;;;13.46;55.65
28267;BME280;15525;45.568;5.448;2023-02-18T06:25:24;99343.00;;;13.46;55.78
28267;BME280;15525;45.568;5.448;2023-02-18T06:27:50;99360.25;;;13.50;55.85
28267;BME280;15525;45.568;5.448;2023-02-18T06:30:15;99365.84;;;13.44;56.05
28267;BME280;15525;45.568;5.448;2023-02-18T06:32:41;99343.41;;;13.33;56.26
28267;BME280;15525;45.568;5.448;2023-02-18T06:35:06;99348.50;;;13.30;56.70
28267;BME280;15525;45.568;5.448;2023-02-18T06:37:32;99350.41;;;13.29;56.66
28267;BME280;15525;45.568;5.448;2023-02-18T06:39:57;99359.25;;;13.30;56.79
28267;BME280;15525;45.568;5.448;2023-02-18T06:42:23;99355.25;;;13.32;56.47
28267;BME280;15525;45.568;5.448;2023-02-18T06:44:48;99356.66;;;13.40;56.26
28267;BME280;15525;45.568;5.448;2023-02-18T06:47:13;99343.41;;;13.33;56.01
28267;BME280;15525;45.568;5.448;2023-02-18T06:49:39;99376.44;;;13.55;55.92
28267;BME280;15525;45.568;5.448;2023-02-18T06:52:05;99368.38;;;13.55;55.76
28267;BME280;15525;45.568;5.448;2023-02-18T06:54:30;99357.06;;;13.53;55.74
28267;BME280;15525;45.568;5.448;2023-02-18T06:56:56;99351.44;;;13.55;55.98
28267;BME280;15525;45.568;5.448;2023-02-18T06:59:21;99382.97;;;13.64;56.06
28267;BME280;15525;45.568;5.448;2023-02-18T07:01:47;99364.94;;;13.60;56.20
28267;BME280;15525;45.568;5.448;2023-02-18T07:04:12;99353.31;;;13.54;55.65
28267;BME280;15525;45.568;5.448;2023-02-18T07:06:38;99371.44;;;13.64;56.01
28267;BME280;15525;45.568;5.448;2023-02-18T07:09:04;99379.84;;;13.72;55.81
28267;BME280;15525;45.568;5.448;2023-02-18T07:11:29;99361.78;;;13.68;55.69
28267;BME280;15525;45.568;5.448;2023-02-18T07:13:54;99352.09;;;13.72;55.87
28267;BME280;15525;45.568;5.448;2023-02-18T07:16:20;99369.63;;;13.74;55.83
28267;BME280;15525;45.568;5.448;2023-02-18T07:18:45;99374.53;;;13.82;55.80
28267;BME280;15525;45.568;5.448;2023-02-18T07:21:11;99354.91;;;13.82;55.67
28267;BME280;15525;45.568;5.448;2023-02-18T07:23:36;99359.00;;;13.89;56.32
28267;BME280;15525;45.568;5.448;2023-02-18T07:26:07;99375.22;;;13.99;56.81
28267;BME280;15525;45.568;5.448;2023-02-18T07:28:33;99371.94;;;13.97;56.20
28267;BME280;15525;45.568;5.448;2023-02-18T07:30:59;99371.41;;;13.95;56.52
28267;BME280;15525;45.568;5.448;2023-02-18T07:33:24;99360.13;;;13.98;56.49
28267;BME280;15525;45.568;5.448;2023-02-18T07:35:54;99335.31;;;13.91;56.54
28267;BME280;15525;45.568;5.448;2023-02-18T07:38:20;99385.66;;;14.27;56.09
28267;BME280;15525;45.568;5.448;2023-02-18T07:40:45;99382.41;;;14.20;56.27
28267;BME280;15525;45.568;5.448;2023-02-18T07:43:11;99372.75;;;14.29;56.49
28267;BME280;15525;45.568;5.448;2023-02-18T07:45:39;99350.13;;;14.30;56.33
28267;BME280;15525;45.568;5.448;2023-02-18T07:48:05;99383.97;;;14.58;55.90
28267;BME280;15525;45.568;5.448;2023-02-18T07:50:30;99372.38;;;14.52;56.01
28267;BME280;15525;45.568;5.448;2023-02-18T07:53:02;99392.03;;;14.58;56.30
28267;BME280;15525;45.568;5.448;2023-02-18T07:55:28;99349.69;;;14.43;56.44
28267;BME280;15525;45.568;5.448;2023-02-18T07:58:21;99367.56;;;14.69;55.76
28267;BME280;15525;45.568;5.448;2023-02-18T08:00:48;99376.25;;;14.81;56.04
28267;BME280;15525;45.568;5.448;2023-02-18T08:03:15;99330.88;;;14.58;56.04
28267;BME280;15525;45.568;5.448;2023-02-18T08:05:41;99363.91;;;14.90;56.00
28267;BME280;15525;45.568;5.448;2023-02-18T08:08:06;99377.69;;;15.09;55.79
28267;BME280;15525;45.568;5.448;2023-02-18T08:10:31;99366.66;;;15.15;56.22
28267;BME280;15525;45.568;5.448;2023-02-18T08:12:57;99385.03;;;15.28;55.69
28267;BME280;15525;45.568;5.448;2023-02-18T08:15:22;99381.88;;;15.36;55.77
28267;BME280;15525;45.568;5.448;2023-02-18T08:17:48;99388.88;;;15.42;55.43
28267;BME280;15525;45.568;5.448;2023-02-18T08:20:13;99380.53;;;15.49;55.47
28267;BME280;15525;45.568;5.448;2023-02-18T08:22:39;99387.53;;;15.55;55.18
28267;BME280;15525;45.568;5.448;2023-02-18T08:25:05;99371.91;;;15.57;55.61
28267;BME280;15525;45.568;5.448;2023-02-18T08:27:31;99386.50;;;15.71;55.68
28267;BME280;15525;45.568;5.448;2023-02-18T08:29:56;99398.91;;;15.77;55.15
28267;BME280;15525;45.568;5.448;2023-02-18T08:32:25;99375.44;;;15.72;55.98
28267;BME280;15525;45.568;5.448;2023-02-18T08:34:50;99366.50;;;15.77;55.21
28267;BME280;15525;45.568;5.448;2023-02-18T08:37:16;99388.66;;;16.04;55.01
28267;BME280;15525;45.568;5.448;2023-02-18T08:39:41;99359.22;;;15.87;55.32
28267;BME280;15525;45.568;5.448;2023-02-18T08:42:07;99390.53;;;16.18;54.82
28267;BME280;15525;45.568;5.448;2023-02-18T08:44:32;99368.94;;;16.13;54.58
28267;BME280;15525;45.568;5.448;2023-02-18T08:46:58;99392.44;;;16.43;54.49
28267;BME280;15525;45.568;5.448;2023-02-18T08:49:23;99369.16;;;16.37;54.33
28267;BME280;15525;45.568;5.448;2023-02-18T08:51:49;99385.09;;;16.58;54.15
28267;BME280;15525;45.568;5.448;2023-02-18T08:54:16;99398.59;;;16.63;53.99
28267;BME280;15525;45.568;5.448;2023-02-18T08:56:41;99398.63;;;16.58;54.36
28267;BME280;15525;45.568;5.448;2023-02-18T08:59:07;99368.91;;;16.43;54.62
28267;BME280;15525;45.568;5.448;2023-02-18T09:01:32;99392.13;;;16.59;54.76
28267;BME280;15525;45.568;5.448;2023-02-18T09:03:58;99388.84;;;16.62;54.47
28267;BME280;15525;45.568;5.448;2023-02-18T09:06:23;99369.41;;;16.55;55.05
28267;BME280;15525;45.568;5.448;2023-02-18T09:08:49;99392.63;;;16.66;54.70
28267;BME280;15525;45.568;5.448;2023-02-18T09:11:14;99383.63;;;16.86;54.36
28267;BME280;15525;45.568;5.448;2023-02-18T09:13:40;99404.38;;;17.10;54.08
28267;BME280;15525;45.568;5.448;2023-02-18T09:16:08;99373.00;;;17.09;54.27
28267;BME280;15525;45.568;5.448;2023-02-18T09:18:34;99402.34;;;17.36;53.95
28267;BME280;15525;45.568;5.448;2023-02-18T09:21:01;99392.34;;;17.41;53.45
28267;BME280;15525;45.568;5.448;2023-02-18T09:23:28;99400.91;;;17.53;53.45
28267;BME280;15525;45.568;5.448;2023-02-18T09:25:54;99384.13;;;17.51;53.50
28267;BME280;15525;45.568;5.448;2023-02-18T09:28:20;99390.66;;;17.50;54.04
28267;BME280;15525;45.568;5.448;2023-02-18T09:30:45;99367.41;;;17.39;53.81
28267;BME280;15525;45.568;5.448;2023-02-18T09:33:11;99378.72;;;17.51;54.22
28267;BME280;15525;45.568;5.448;2023-02-18T09:35:41;99400.81;;;17.68;54.47
28267;BME280;15525;45.568;5.448;2023-02-18T09:38:11;99378.16;;;17.88;53.56
28267;BME280;15525;45.568;5.448;2023-02-18T09:40:41;99397.91;;;17.93;53.49
28267;BME280;15525;45.568;5.448;2023-02-18T09:43:33;99387.47;;;18.10;53.50
28267;BME280;15525;45.568;5.448;2023-02-18T09:45:59;99375.91;;;18.33;53.02
28267;BME280;15525;45.568;5.448;2023-02-18T09:48:35;99379.53;;;18.19;53.49
28267;BME280;15525;45.568;5.448;2023-02-18T09:51:01;99375.25;;;18.13;53.44
28267;BME280;15525;45.568;5.448;2023-02-18T09:53:27;99364.78;;;18.35;52.73
28267;BME280;15525;45.568;5.448;2023-02-18T09:55:55;99371.34;;;18.52;53.04
28267;BME280;15525;45.568;5.448;2023-02-18T09:58:26;99371.66;;;18.74;52.48
28267;BME280;15525;45.568;5.448;2023-02-18T10:03:44;99378.13;;;18.78;52.20
28267;BME280;15525;45.568;5.448;2023-02-18T10:06:23;99379.75;;;18.98;52.24
28267;BME280;15525;45.568;5.448;2023-02-18T10:08:50;99381.91;;;18.77;52.63
28267;BME280;15525;45.568;5.448;2023-02-18T10:11:39;99377.66;;;18.71;52.46
28267;BME280;15525;45.568;5.448;2023-02-18T10:14:10;99382.19;;;18.99;51.70
28267;BME280;15525;45.568;5.448;2023-02-18T10:16:35;99378.50;;;18.90;51.67
28267;BME280;15525;45.568;5.448;2023-02-18T10:21:37;99373.09;;;18.67;52.23
28267;BME280;15525;45.568;5.448;2023-02-18T10:24:08;99384.19;;;18.70;52.43
28267;BME280;15525;45.568;5.448;2023-02-18T10:26:39;99371.41;;;18.94;51.83
28267;BME280;15525;45.568;5.448;2023-02-18T10:29:14;99366.66;;;19.05;51.42
28267;BME280;15525;45.568;5.448;2023-02-18T10:31:44;99362.81;;;19.48;50.89
28267;BME280;15525;45.568;5.448;2023-02-18T10:34:42;99376.16;;;19.81;50.21
28267;BME280;15525;45.568;5.448;2023-02-18T10:42:58;99351.66;;;19.31;50.78
28267;BME280;15525;45.568;5.448;2023-02-18T10:45:42;99370.31;;;19.74;50.77
28267;BME280;15525;45.568;5.448;2023-02-18T10:50:48;99367.88;;;19.73;50.26
28267;BME280;15525;45.568;5.448;2023-02-18T10:53:24;99352.09;;;19.56;49.80
28267;BME280;15525;45.568;5.448;2023-02-18T10:55:53;99350.75;;;19.72;50.06
28267;BME280;15525;45.568;5.448;2023-02-18T10:58:36;99370.41;;;20.01;49.37
28267;BME280;15525;45.568;5.448;2023-02-18T11:01:13;99367.69;;;19.83;49.83
28267;BME280;15525;45.568;5.448;2023-02-18T11:03:48;99370.78;;;20.27;49.46
28267;BME280;15525;45.568;5.448;2023-02-18T11:06:23;99365.06;;;20.55;48.88
28267;BME280;15525;45.568;5.448;2023-02-18T11:08:52;99360.84;;;20.49;48.48
28267;BME280;15525;45.568;5.448;2023-02-18T11:11:25;99364.47;;;20.58;48.75
28267;BME280;15525;45.568;5.448;2023-02-18T11:13:54;99373.94;;;20.61;48.58
28267;BME280;15525;45.568;5.448;2023-02-18T11:16:21;99380.00;;;19.43;49.87
28267;BME280;15525;45.568;5.448;2023-02-18T11:18:48;99371.19;;;19.33;50.07
28267;BME280;15525;45.568;5.448;2023-02-18T11:21:23;99382.47;;;19.77;48.95
28267;BME280;15525;45.568;5.448;2023-02-18T11:23:54;99363.75;;;19.75;48.47
28267;BME280;15525;45.568;5.448;2023-02-18T11:26:27;99358.06;;;19.90;48.07
28267;BME280;15525;45.568;5.448;2023-02-18T11:29:02;99348.66;;;20.01;47.60
28267;BME280;15525;45.568;5.448;2023-02-18T11:31:42;99342.59;;;20.04;47.75
28267;BME280;15525;45.568;5.448;2023-02-18T11:34:16;99356.81;;;20.47;47.18
28267;BME280;15525;45.568;5.448;2023-02-18T11:36:43;99349.97;;;20.63;47.01
28267;BME280;15525;45.568;5.448;2023-02-18T11:41:57;99333.84;;;20.39;45.74
28267;BME280;15525;45.568;5.448;2023-02-18T11:44:39;99340.69;;;20.50;45.54
28267;BME280;15525;45.568;5.448;2023-02-18T11:49:37;99347.56;;;20.61;46.08
28267;BME280;15525;45.568;5.448;2023-02-18T11:52:26;99338.78;;;20.64;44.67
28267;BME280;15525;45.568;5.448;2023-02-18T11:55:12;99334.66;;;20.53;44.70
28267;BME280;15525;45.568;5.448;2023-02-18T11:57:41;99341.00;;;20.49;45.61
28267;BME280;15525;45.568;5.448;2023-02-18T12:00:36;99337.03;;;20.41;43.03
28267;BME280;15525;45.568;5.448;2023-02-18T12:03:08;99315.19;;;20.46;44.62
28267;BME280;15525;45.568;5.448;2023-02-18T12:05:38;99327.81;;;20.42;44.49
28267;BME280;15525;45.568;5.448;2023-02-18T12:08:19;99308.84;;;20.24;44.31
28267;BME280;15525;45.568;5.448;2023-02-18T12:16:12;99323.94;;;20.30;44.99
28267;BME280;15525;45.568;5.448;2023-02-18T12:21:29;99311.06;;;20.35;43.45
28267;BME280;15525;45.568;5.448;2023-02-18T12:38:20;99310.97;;;20.54;43.08
28267;BME280;15525;45.568;5.448;2023-02-18T12:52:13;99282.66;;;22.84;39.48
28267;BME280;15525;45.568;5.448;2023-02-18T12:57:42;99271.78;;;21.62;40.01
28267;BME280;15525;45.568;5.448;2023-02-18T13:11:48;99246.53;;;21.48;40.60
28267;BME280;15525;45.568;5.448;2023-02-18T13:14:28;99251.13;;;21.39;40.38
28267;BME280;15525;45.568;5.448;2023-02-18T13:16:57;99247.94;;;21.23;41.36
28267;BME280;15525;45.568;5.448;2023-02-18T13:19:28;99229.66;;;20.88;41.26
28267;BME280;15525;45.568;5.448;2023-02-18T13:22:01;99237.59;;;21.12;41.24
28267;BME280;15525;45.568;5.448;2023-02-18T13:24:36;99234.44;;;20.69;42.06
28267;BME280;15525;45.568;5.448;2023-02-18T13:35:34;99199.16;;;21.88;40.54
28267;BME280;15525;45.568;5.448;2023-02-18T13:40:46;99197.19;;;22.10;40.12
28267;BME280;15525;45.568;5.448;2023-02-18T13:43:32;99191.53;;;21.24;39.73
28267;BME280;15525;45.568;5.448;2023-02-18T13:46:13;99182.75;;;21.05;40.98
28267;BME280;15525;45.568;5.448;2023-02-18T13:48:43;99186.16;;;21.10;41.15
28267;BME280;15525;45.568;5.448;2023-02-18T13:51:11;99177.72;;;21.42;40.69
28267;BME280;15525;45.568;5.448;2023-02-18T13:53:40;99180.88;;;22.36;39.21
28267;BME280;15525;45.568;5.448;2023-02-18T13:56:21;99165.69;;;22.60;37.73
28267;BME280;15525;45.568;5.448;2023-02-18T13:58:51;99165.88;;;22.81;37.07
28267;BME280;15525;45.568;5.448;2023-02-18T14:01:36;99178.97;;;22.45;37.55
28267;BME280;15525;45.568;5.448;2023-02-18T14:04:02;99166.25;;;21.84;38.74
28267;BME280;15525;45.568;5.448;2023-02-18T14:06:34;99139.16;;;21.88;39.16
28267;BME280;15525;45.568;5.448;2023-02-18T14:11:54;99139.78;;;22.41;37.81
28267;BME280;15525;45.568;5.448;2023-02-18T14:22:44;99122.69;;;23.63;35.67
28267;BME280;15525;45.568;5.448;2023-02-18T14:27:37;99129.69;;;23.26;36.97
28267;BME280;15525;45.568;5.448;2023-02-18T14:30:38;99126.78;;;23.31;36.25
28267;BME280;15525;45.568;5.448;2023-02-18T14:32:55;99132.72;;;22.40;37.43
28267;BME280;15525;45.568;5.448;2023-02-18T14:38:23;99113.22;;;23.52;35.39
28267;BME280;15525;45.568;5.448;2023-02-18T14:41:13;99114.59;;;24.33;34.67
28267;BME280;15525;45.568;5.448;2023-02-18T14:51:47;99092.50;;;25.32;33.87
28267;BME280;15525;45.568;5.448;2023-02-18T14:54:16;99107.38;;;24.78;33.80
28267;BME280;15525;45.568;5.448;2023-02-18T14:59:21;99098.53;;;23.65;35.32
28267;BME280;15525;45.568;5.448;2023-02-18T15:01:48;99096.16;;;23.55;35.08
28267;BME280;15525;45.568;5.448;2023-02-18T15:04:14;99090.94;;;23.33;35.90
28267;BME280;15525;45.568;5.448;2023-02-18T15:06:40;99090.06;;;24.16;34.98
28267;BME280;15525;45.568;5.448;2023-02-18T15:09:20;99070.91;;;23.95;33.76
28267;BME280;15525;45.568;5.448;2023-02-18T15:11:54;99078.16;;;23.91;34.17
28267;BME280;15525;45.568;5.448;2023-02-18T15:14:24;99072.59;;;24.49;34.06
28267;BME280;15525;45.568;5.448;2023-02-18T15:16:50;99094.72;;;23.86;34.77
28267;BME280;15525;45.568;5.448;2023-02-18T15:19:19;99069.44;;;23.98;34.66
28267;BME280;15525;45.568;5.448;2023-02-18T15:21:50;99087.19;;;23.46;35.31
28267;BME280;15525;45.568;5.448;2023-02-18T15:26:59;99094.38;;;23.59;34.93
28267;BME280;15525;45.568;5.448;2023-02-18T15:29:33;99083.66;;;23.83;34.45
28267;BME280;15525;45.568;5.448;2023-02-18T15:31:59;99093.38;;;23.72;35.02
28267;BME280;15525;45.568;5.448;2023-02-18T15:34:38;99101.91;;;24.28;33.81